createdAt,value
2022-09-17T00:02:56.536Z,2.72
2022-09-17T00:08:02.697Z,2.99
2022-09-17T00:13:10.497Z,2.60
2022-09-17T00:18:16.581Z,2.86
2022-09-17T00:23:23.100Z,3.18
2022-09-17T00:29:20.752Z,2.99
2022-09-17T00:34:27.352Z,3.51
2022-09-17T00:39:33.465Z,2.93
2022-09-17T00:44:39.691Z,2.72
2022-09-17T00:49:48.314Z,2.42
2022-09-17T00:54:55.025Z,2.84
2022-09-17T01:00:01.159Z,2.91
2022-09-17T01:05:07.424Z,3.79
2022-09-17T01:10:13.834Z,3.85
2022-09-17T01:15:20.015Z,3.22
2022-09-17T01:20:26.463Z,3.17
2022-09-17T01:25:33.020Z,3.57
2022-09-17T01:30:39.104Z,3.75
2022-09-17T01:35:46.208Z,3.26
2022-09-17T01:40:52.935Z,2.97
2022-09-17T01:45:59.157Z,3.52
2022-09-17T01:51:05.306Z,3.16
2022-09-17T01:56:11.746Z,3.42
2022-09-17T02:01:18.237Z,3.22
2022-09-17T02:06:24.724Z,3.69
2022-09-17T02:11:30.984Z,3.24
2022-09-17T02:16:37.172Z,2.99
2022-09-17T02:21:43.385Z,2.91
2022-09-17T02:26:49.645Z,3.20
2022-09-17T02:31:55.827Z,3.10
2022-09-17T02:37:02.013Z,3.10
2022-09-17T02:42:08.450Z,2.90
2022-09-17T02:47:14.747Z,3.01
2022-09-17T02:52:20.853Z,2.99
2022-09-17T02:57:26.962Z,2.86
2022-09-17T03:02:33.161Z,3.69
2022-09-17T03:07:39.342Z,3.31
2022-09-17T03:12:45.443Z,2.72
2022-09-17T03:17:53.499Z,2.79
2022-09-17T03:22:57.749Z,2.81
2022-09-17T03:28:04.323Z,3.10
2022-09-17T03:33:10.521Z,2.92
2022-09-17T03:38:16.828Z,2.87
2022-09-17T03:43:22.881Z,2.79
2022-09-17T03:48:29.019Z,3.34
2022-09-17T03:53:35.115Z,2.77
2022-09-17T03:58:41.381Z,2.93
2022-09-17T04:03:47.939Z,2.96
2022-09-17T04:08:55.022Z,2.84
2022-09-17T04:14:01.100Z,2.52
2022-09-17T04:19:07.251Z,3.00
2022-09-17T04:24:13.537Z,2.80
2022-09-17T04:29:19.974Z,2.93
2022-09-17T04:34:25.999Z,2.80
2022-09-17T04:39:32.200Z,2.89
2022-09-17T04:44:38.426Z,2.68
2022-09-17T04:49:44.586Z,2.60
2022-09-17T04:54:50.793Z,2.86
2022-09-17T04:59:56.950Z,2.99
2022-09-17T05:05:03.199Z,2.83
2022-09-17T05:10:09.535Z,2.61
2022-09-17T05:15:15.649Z,2.70
2022-09-17T05:20:22.137Z,2.50
2022-09-17T05:25:28.328Z,2.46
2022-09-17T05:30:35.223Z,2.68
2022-09-17T05:35:41.609Z,2.39
2022-09-17T05:40:47.827Z,2.52
2022-09-17T05:45:53.894Z,2.92
2022-09-17T05:51:00.304Z,3.09
2022-09-17T05:56:06.474Z,2.29
2022-09-17T06:01:12.775Z,2.81
2022-09-17T06:06:18.896Z,2.95
2022-09-17T06:11:25.480Z,2.77
2022-09-17T06:16:31.706Z,2.98
2022-09-17T06:21:37.839Z,3.23
2022-09-17T06:26:44.269Z,3.69
2022-09-17T06:31:50.491Z,3.48
2022-09-17T06:36:57.019Z,2.80
2022-09-17T06:42:03.294Z,3.01
2022-09-17T06:47:09.380Z,2.62
2022-09-17T06:52:15.523Z,2.66
2022-09-17T06:57:21.622Z,3.02
2022-09-17T07:02:28.028Z,2.86
2022-09-17T07:07:34.219Z,3.17
2022-09-17T07:12:40.531Z,2.85
2022-09-17T07:17:46.721Z,3.03
2022-09-17T07:22:52.881Z,2.57
2022-09-17T07:27:59.114Z,2.73
2022-09-17T07:33:05.284Z,2.50
2022-09-17T07:38:11.458Z,3.23
2022-09-17T07:43:17.648Z,3.18
2022-09-17T07:48:24.081Z,3.12
2022-09-17T07:53:30.582Z,3.02
2022-09-17T07:58:36.762Z,2.86
2022-09-17T08:03:43.023Z,2.58
2022-09-17T08:08:49.229Z,2.85
2022-09-17T08:13:55.723Z,2.61
2022-09-17T08:19:01.934Z,2.97
2022-09-17T08:24:08.125Z,2.69
2022-09-17T08:29:14.269Z,3.08
2022-09-17T08:34:21.423Z,3.28
2022-09-17T08:39:27.495Z,3.41
2022-09-17T08:44:33.776Z,2.91
2022-09-17T08:49:39.832Z,2.69
2022-09-17T08:54:46.007Z,2.88
2022-09-17T08:59:52.437Z,2.47
2022-09-17T09:04:58.607Z,2.45
2022-09-17T09:10:04.692Z,2.62
2022-09-17T09:15:10.835Z,2.87
2022-09-17T09:20:17.008Z,2.59
2022-09-17T09:25:23.185Z,2.39
2022-09-17T09:30:29.253Z,2.45
2022-09-17T09:35:35.612Z,2.37
2022-09-17T09:40:41.691Z,2.20
2022-09-17T09:45:48.738Z,1.93
2022-09-17T09:51:06.196Z,2.14
2022-09-17T09:56:01.035Z,2.16
2022-09-17T10:01:07.151Z,2.15
2022-09-17T10:06:13.437Z,1.74
2022-09-17T10:11:19.512Z,1.82
2022-09-17T10:16:26.240Z,1.82
2022-09-17T10:21:33.033Z,1.80
2022-09-17T10:26:39.189Z,1.83
2022-09-17T10:31:45.423Z,2.06
2022-09-17T10:36:51.694Z,1.96
2022-09-17T10:41:57.925Z,2.24
2022-09-17T10:47:04.619Z,1.98
2022-09-17T10:52:10.756Z,2.07
2022-09-17T10:57:17.203Z,1.85
2022-09-17T11:02:23.461Z,2.18
2022-09-17T11:07:29.561Z,2.22
2022-09-17T11:12:35.643Z,1.94
2022-09-17T11:17:42.278Z,1.50
2022-09-17T11:22:48.439Z,1.48
2022-09-17T11:27:54.666Z,1.57
2022-09-17T11:33:01.181Z,1.68
2022-09-17T11:38:07.397Z,1.62
2022-09-17T11:43:13.626Z,2.02
2022-09-17T11:48:19.986Z,1.90
2022-09-17T11:53:26.407Z,1.99
2022-09-17T11:58:32.715Z,1.91
2022-09-17T12:03:38.855Z,2.29
2022-09-17T12:09:30.912Z,2.88
2022-09-17T12:14:37.489Z,2.62
2022-09-17T12:19:46.234Z,2.23
2022-09-17T12:24:52.518Z,2.70
2022-09-17T12:30:00.652Z,2.45
2022-09-17T12:35:04.462Z,2.66
2022-09-17T12:40:10.878Z,2.50
2022-09-17T12:45:17.054Z,2.50
2022-09-17T12:50:23.448Z,2.58
2022-09-17T12:55:29.953Z,3.06
2022-09-17T13:00:36.708Z,2.94
2022-09-17T13:05:42.774Z,3.04
2022-09-17T13:10:49.030Z,2.64
2022-09-17T13:15:55.542Z,2.35
2022-09-17T13:21:01.773Z,2.82
2022-09-17T13:26:07.965Z,2.10
2022-09-17T13:31:14.325Z,2.81
2022-09-17T13:36:20.372Z,2.40
2022-09-17T13:41:27.061Z,2.38
2022-09-17T13:46:33.227Z,1.72
2022-09-17T13:51:39.321Z,1.69
2022-09-17T13:56:45.427Z,1.65
2022-09-17T14:01:52.817Z,2.31
2022-09-17T14:06:58.918Z,2.78
2022-09-17T14:12:05.777Z,2.77
2022-09-17T14:17:11.811Z,2.99
2022-09-17T14:22:18.358Z,2.82
2022-09-17T14:27:24.478Z,3.09
2022-09-17T14:32:30.697Z,2.94
2022-09-17T14:37:36.768Z,3.05
2022-09-17T14:42:43.275Z,3.81
2022-09-17T14:47:49.393Z,3.04
2022-09-17T14:52:55.629Z,3.04
2022-09-17T14:58:02.041Z,2.52
2022-09-17T15:03:08.396Z,3.11
2022-09-17T15:08:14.545Z,2.92
2022-09-17T15:13:20.674Z,2.75
2022-09-17T15:18:26.749Z,2.71
2022-09-17T15:23:33.511Z,2.73
2022-09-17T15:28:39.587Z,2.56
2022-09-17T15:33:45.764Z,3.14
2022-09-17T15:38:51.914Z,3.19
2022-09-17T15:44:13.269Z,2.83
2022-09-17T15:49:04.083Z,3.05
2022-09-17T15:54:13.390Z,3.00
2022-09-17T15:59:18.241Z,3.31
2022-09-17T16:04:21.694Z,4.00
2022-09-17T16:09:27.925Z,3.79
2022-09-17T16:14:34.233Z,3.38
2022-09-17T16:19:40.753Z,3.83
2022-09-17T16:24:47.581Z,3.84
2022-09-17T16:29:53.984Z,3.80
2022-09-17T16:35:00.531Z,3.15
2022-09-17T16:40:06.944Z,3.43
2022-09-17T16:45:12.994Z,2.95
2022-09-17T16:50:19.244Z,3.15
2022-09-17T16:55:25.576Z,2.94
2022-09-17T17:00:32.138Z,2.48
2022-09-17T17:05:38.356Z,2.38
2022-09-17T17:10:44.762Z,2.42
2022-09-17T17:15:51.821Z,2.58
2022-09-17T17:20:57.857Z,3.14
2022-09-17T17:26:04.669Z,3.14
2022-09-17T17:31:11.250Z,2.74
2022-09-17T17:36:19.734Z,2.74
2022-09-17T17:41:25.849Z,3.08
2022-09-17T17:46:32.286Z,2.99
2022-09-17T17:51:38.395Z,3.39
2022-09-17T17:56:44.973Z,3.56
2022-09-17T18:01:51.336Z,3.55
2022-09-17T18:06:57.542Z,3.14
2022-09-17T18:12:03.658Z,2.84
2022-09-17T18:17:10.039Z,3.63
2022-09-17T18:22:16.458Z,3.35
2022-09-17T18:27:22.712Z,3.05
2022-09-17T18:32:29.194Z,3.87
2022-09-17T18:37:35.561Z,3.10
2022-09-17T18:42:42.035Z,3.38
2022-09-17T18:47:48.953Z,3.29
2022-09-17T18:52:55.121Z,2.98
2022-09-17T18:58:01.398Z,3.22
2022-09-17T19:03:08.315Z,2.75
2022-09-17T19:08:14.592Z,2.58
2022-09-17T19:13:21.496Z,2.51
2022-09-17T19:18:27.818Z,2.79
2022-09-17T19:23:33.967Z,2.60
2022-09-17T19:28:40.329Z,2.48
2022-09-17T19:33:46.481Z,2.58
2022-09-17T19:38:52.793Z,2.28
2022-09-17T19:43:59.006Z,2.90
2022-09-17T19:49:05.278Z,2.51
2022-09-17T19:54:11.514Z,2.48
2022-09-17T19:59:17.758Z,2.27
2022-09-17T20:04:24.049Z,2.22
2022-09-17T20:09:30.482Z,2.42
2022-09-17T20:14:37.120Z,2.58
2022-09-17T20:19:43.475Z,2.85
2022-09-17T20:24:51.196Z,2.39
2022-09-17T20:29:55.533Z,2.09
2022-09-17T20:35:01.710Z,2.11
2022-09-17T20:40:08.502Z,2.99
2022-09-17T20:45:14.660Z,2.59
2022-09-17T20:50:21.023Z,2.79
2022-09-17T20:55:27.483Z,2.75
2022-09-17T21:00:33.625Z,2.27
2022-09-17T21:05:39.802Z,2.28
2022-09-17T21:10:46.079Z,2.87
2022-09-17T21:15:52.196Z,2.53
2022-09-17T21:20:58.328Z,2.02
2022-09-17T21:26:04.448Z,2.83
2022-09-17T21:31:11.227Z,2.11
2022-09-17T21:36:17.324Z,2.02
2022-09-17T21:41:23.631Z,2.18
2022-09-17T21:46:30.370Z,2.27
2022-09-17T21:51:36.608Z,1.79
2022-09-17T21:56:42.678Z,2.12
2022-09-17T22:01:49.017Z,2.59
2022-09-17T22:06:55.109Z,2.32
2022-09-17T22:12:01.679Z,2.27
2022-09-17T22:17:07.838Z,1.98
2022-09-17T22:22:14.186Z,2.42
2022-09-17T22:27:20.268Z,2.23
2022-09-17T22:32:26.596Z,1.91
2022-09-17T22:37:33.007Z,2.06
2022-09-17T22:42:39.231Z,2.24
2022-09-17T22:47:45.413Z,1.79
2022-09-17T22:52:53.102Z,1.92
2022-09-17T22:57:59.655Z,2.31
2022-09-17T23:03:06.178Z,2.19
2022-09-17T23:08:12.342Z,1.77
2022-09-17T23:13:18.595Z,2.07
2022-09-17T23:18:25.165Z,2.49
2022-09-17T23:23:31.502Z,2.09
2022-09-17T23:28:37.654Z,2.13
2022-09-17T23:33:43.930Z,1.88
2022-09-17T23:38:50.122Z,1.88
2022-09-17T23:43:56.432Z,2.18
2022-09-17T23:49:02.498Z,1.75
2022-09-17T23:54:08.637Z,2.19
2022-09-17T23:59:14.834Z,2.37
